Time;durP1;ratioP1;P1;durP2;ratioP2;P2;SDS_P1;SDS_P2;PMS_P1;PMS_P2;Temp;Humidity;BMP_temperature;BMP_pressure;BME280_temperature;BME280_humidity;BME280_pressure;Samples;Min_cycle;Max_cycle;Signal;HPM_P1;HPM_P2
2022/10/13 00:00:11;;;;;;;7.93;5.00;;;9.20;99.90;;;;;;4922941;29;20179;-79
2022/10/13 00:02:36;;;;;;;11.53;6.23;;;9.20;99.90;;;;;;4916960;29;20219;-78
2022/10/13 00:05:02;;;;;;;8.63;5.40;;;9.10;99.90;;;;;;4922592;29;20201;-80
2022/10/13 00:07:27;;;;;;;9.43;5.60;;;9.20;99.90;;;;;;4914215;29;20311;-78
2022/10/13 00:09:53;;;;;;;12.30;5.97;;;9.20;99.90;;;;;;4918901;29;20209;-83
2022/10/13 00:12:18;;;;;;;9.17;5.20;;;9.20;99.90;;;;;;4915951;29;20199;-82
2022/10/13 00:14:44;;;;;;;9.47;5.70;;;9.20;99.90;;;;;;4920086;29;20191;-85
2022/10/13 00:17:09;;;;;;;9.23;6.07;;;9.20;99.90;;;;;;4918656;29;20199;-80
2022/10/13 00:19:35;;;;;;;11.30;7.00;;;9.20;99.90;;;;;;4922960;29;20239;-83
2022/10/13 00:22:00;;;;;;;8.93;5.67;;;9.20;99.90;;;;;;4919388;28;20200;-84
2022/10/13 00:24:26;;;;;;;11.97;5.33;;;9.10;99.90;;;;;;4916878;29;20240;-81
2022/10/13 00:26:51;;;;;;;9.50;5.43;;;9.10;99.90;;;;;;4919890;29;20215;-72
2022/10/13 00:29:17;;;;;;;14.60;6.37;;;9.10;99.90;;;;;;4916561;29;20227;-74
2022/10/13 00:31:42;;;;;;;11.37;6.43;;;9.00;99.90;;;;;;4925798;29;20225;-72
2022/10/13 00:34:08;;;;;;;7.07;4.83;;;9.00;99.90;;;;;;4915430;29;20669;-73
2022/10/13 00:36:34;;;;;;;12.13;5.17;;;9.00;99.90;;;;;;4931649;29;20212;-70
2022/10/13 00:38:59;;;;;;;11.00;5.37;;;9.00;99.90;;;;;;4924412;29;20212;-71
2022/10/13 00:41:25;;;;;;;12.20;5.27;;;9.00;99.90;;;;;;4926296;29;20204;-72
2022/10/13 00:43:56;;;;;;;7.13;5.77;;;9.00;99.90;;;;;;4919986;29;20191;-74
2022/10/13 00:46:23;;;;;;;11.00;5.87;;;9.00;99.90;;;;;;4913059;29;20202;-70
2022/10/13 00:48:50;;;;;;;9.23;5.73;;;8.90;99.90;;;;;;4916322;29;20215;-72
2022/10/13 00:51:19;;;;;;;7.90;4.47;;;8.90;99.90;;;;;;4918509;29;20220;-71
2022/10/13 00:53:46;;;;;;;8.90;5.70;;;8.90;99.90;;;;;;4914722;29;20323;-72
2022/10/13 00:56:13;;;;;;;10.80;5.27;;;8.90;99.90;;;;;;4919295;29;20662;-73
2022/10/13 00:58:39;;;;;;;7.33;5.83;;;8.90;99.90;;;;;;4912929;29;20252;-71
2022/10/13 01:01:05;;;;;;;12.83;5.73;;;8.90;99.90;;;;;;4916893;29;20200;-72
2022/10/13 01:03:32;;;;;;;8.60;5.73;;;8.90;99.90;;;;;;4922463;29;20326;-70
2022/10/13 01:06:01;;;;;;;11.67;5.97;;;8.90;99.90;;;;;;4921248;29;20225;-71
2022/10/13 01:08:28;;;;;;;14.37;6.00;;;8.90;99.90;;;;;;4914083;29;20221;-76
2022/10/13 01:11:28;;;;;;;13.57;6.67;;;8.90;99.90;;;;;;4919645;29;20579;-72
2022/10/13 01:14:17;;;;;;;6.53;5.23;;;8.90;99.90;;;;;;4912274;29;20190;-74
2022/10/13 01:17:05;;;;;;;9.73;5.93;;;8.90;99.90;;;;;;4912945;29;20279;-73
2022/10/13 01:19:36;;;;;;;9.00;5.83;;;8.90;99.90;;;;;;4913936;29;20295;-74
2022/10/13 01:22:30;;;;;;;8.10;6.43;;;8.80;99.90;;;;;;4910226;29;20660;-73
2022/10/13 01:25:11;;;;;;;12.50;5.47;;;8.80;99.90;;;;;;4913015;29;20187;-74
2022/10/13 01:28:09;;;;;;;6.90;5.37;;;8.80;99.90;;;;;;4908713;29;20205;-73
2022/10/13 01:30:43;;;;;;;9.30;5.30;;;8.80;99.90;;;;;;4918098;29;20246;-74
2022/10/13 01:33:19;;;;;;;9.83;5.63;;;8.70;99.90;;;;;;4912154;29;20201;-72
2022/10/13 01:36:11;;;;;;;6.30;4.97;;;8.70;99.90;;;;;;4914018;29;20603;-72
2022/10/13 01:38:58;;;;;;;7.50;5.43;;;8.70;99.90;;;;;;4918037;29;20211;-72
2022/10/13 01:41:34;;;;;;;9.70;5.73;;;8.70;99.90;;;;;;4915979;29;20181;-73
2022/10/13 01:44:11;;;;;;;7.80;5.53;;;8.70;99.90;;;;;;4918151;29;20893;-80
2022/10/13 01:46:38;;;;;;;12.20;6.13;;;8.70;99.90;;;;;;4914749;29;20227;-70
2022/10/13 01:49:10;;;;;;;11.13;5.67;;;8.80;99.90;;;;;;4924195;28;20211;-70
2022/10/13 01:51:37;;;;;;;10.57;5.30;;;8.90;99.90;;;;;;4934862;29;20215;-70
2022/10/13 01:54:02;;;;;;;10.30;5.47;;;9.00;99.90;;;;;;4929900;28;20222;-70
2022/10/13 01:56:28;;;;;;;9.27;5.87;;;8.90;99.90;;;;;;4919193;29;20201;-70
2022/10/13 01:58:58;;;;;;;10.70;5.30;;;8.90;99.90;;;;;;4918490;28;20189;-73
2022/10/13 02:01:38;;;;;;;9.93;5.23;;;8.90;99.90;;;;;;4916674;29;20183;-74
2022/10/13 02:04:30;;;;;;;8.70;5.70;;;8.90;99.90;;;;;;4914917;29;20876;-74
2022/10/13 02:07:19;;;;;;;11.10;5.87;;;8.80;99.90;;;;;;4910950;29;20231;-76
2022/10/13 02:10:15;;;;;;;10.43;6.00;;;8.80;99.90;;;;;;4917338;28;20220;-74
2022/10/13 02:12:57;;;;;;;11.67;5.63;;;8.80;99.90;;;;;;4927604;28;20271;-74
2022/10/13 02:15:36;;;;;;;8.97;5.80;;;8.70;99.90;;;;;;4929664;29;20246;-77
2022/10/13 02:18:03;;;;;;;10.60;6.37;;;8.60;99.90;;;;;;4921193;29;20216;-78
2022/10/13 02:20:30;;;;;;;9.83;5.83;;;8.60;99.90;;;;;;4931406;29;20348;-76
2022/10/13 02:23:07;;;;;;;14.57;7.07;;;8.60;99.90;;;;;;4919908;29;20266;-75
2022/10/13 02:25:33;;;;;;;9.10;5.80;;;8.50;99.90;;;;;;4918950;29;20191;-77
2022/10/13 02:28:00;;;;;;;10.60;6.17;;;8.50;99.90;;;;;;4918496;29;20207;-76
2022/10/13 02:30:27;;;;;;;10.27;5.77;;;8.50;99.90;;;;;;4941744;29;20782;-75
2022/10/13 02:32:53;;;;;;;9.50;5.53;;;8.40;99.90;;;;;;4929830;29;20213;-76
2022/10/13 02:35:19;;;;;;;9.90;5.47;;;8.40;99.90;;;;;;4924217;29;20204;-76
2022/10/13 02:37:44;;;;;;;10.43;5.83;;;8.30;99.90;;;;;;4922405;29;20327;-75
2022/10/13 02:40:10;;;;;;;11.57;6.53;;;8.30;99.90;;;;;;4940290;29;20233;-77
2022/10/13 02:42:36;;;;;;;10.03;6.20;;;8.20;99.90;;;;;;4931613;29;20608;-77
2022/10/13 02:45:01;;;;;;;6.87;5.93;;;8.20;99.90;;;;;;4946847;29;20198;-76
2022/10/13 02:47:27;;;;;;;10.27;6.20;;;8.20;99.90;;;;;;4913518;28;20235;-77
2022/10/13 02:49:52;;;;;;;10.07;6.40;;;8.20;99.90;;;;;;4911642;29;20219;-76
2022/10/13 02:52:18;;;;;;;9.00;6.07;;;8.20;99.90;;;;;;4930148;29;20746;-76
2022/10/13 02:54:43;;;;;;;9.23;5.93;;;8.20;99.90;;;;;;4942090;28;20201;-76
2022/10/13 02:57:08;;;;;;;10.37;5.93;;;8.10;99.90;;;;;;4933706;29;20212;-76
2022/10/13 02:59:34;;;;;;;6.43;5.67;;;8.10;99.90;;;;;;4910120;29;20260;-80
2022/10/13 03:01:59;;;;;;;11.33;6.47;;;8.10;99.90;;;;;;4930976;29;20202;-79
2022/10/13 03:04:25;;;;;;;13.50;7.73;;;8.10;99.90;;;;;;4919910;29;20183;-78
2022/10/13 03:06:50;;;;;;;11.13;7.03;;;8.10;99.90;;;;;;4928694;29;20234;-78
2022/10/13 03:09:16;;;;;;;11.33;7.67;;;8.10;99.90;;;;;;4921497;29;20247;-78
2022/10/13 03:11:41;;;;;;;13.37;7.47;;;8.10;99.90;;;;;;4930769;29;20251;-78
2022/10/13 03:14:07;;;;;;;11.47;7.83;;;8.10;99.90;;;;;;4910792;29;20907;-78
2022/10/13 03:16:32;;;;;;;10.93;7.30;;;8.10;99.90;;;;;;4932657;29;20221;-78
2022/10/13 03:18:58;;;;;;;10.27;8.73;;;8.10;99.90;;;;;;4916040;29;20200;-77
2022/10/13 03:21:24;;;;;;;13.60;8.77;;;8.10;99.90;;;;;;4923970;29;20204;-77
2022/10/13 03:23:50;;;;;;;11.37;8.10;;;8.10;99.90;;;;;;4917754;29;20246;-78
2022/10/13 03:26:15;;;;;;;11.43;7.80;;;8.20;99.90;;;;;;4920933;29;20286;-77
2022/10/13 03:28:41;;;;;;;10.17;7.43;;;8.10;99.90;;;;;;4917208;29;20214;-78
2022/10/13 03:31:09;;;;;;;11.07;7.37;;;8.10;99.90;;;;;;4932101;29;20202;-79
2022/10/13 03:33:35;;;;;;;11.13;6.83;;;8.20;99.90;;;;;;4912425;29;20290;-80
2022/10/13 03:36:02;;;;;;;12.97;6.93;;;8.10;99.90;;;;;;4921934;29;20279;-79
2022/10/13 03:38:29;;;;;;;11.93;6.70;;;8.20;99.90;;;;;;4920915;29;20310;-83
2022/10/13 03:40:55;;;;;;;10.10;6.67;;;8.20;99.90;;;;;;4937578;29;20296;-79
2022/10/13 03:43:21;;;;;;;8.37;6.43;;;8.20;99.90;;;;;;4915258;29;20208;-74
2022/10/13 03:45:57;;;;;;;7.67;6.00;;;8.30;99.90;;;;;;4947066;29;20250;-76
2022/10/13 03:48:23;;;;;;;9.73;7.00;;;8.30;99.90;;;;;;4911836;29;20216;-76
2022/10/13 03:50:48;;;;;;;8.53;6.07;;;8.30;99.90;;;;;;4927284;29;20199;-76
2022/10/13 03:53:14;;;;;;;11.93;6.63;;;8.40;99.90;;;;;;4926733;29;20237;-76
2022/10/13 03:55:39;;;;;;;9.90;7.23;;;8.40;99.90;;;;;;4938772;29;20207;-78
2022/10/13 03:58:05;;;;;;;8.93;6.73;;;8.40;99.90;;;;;;4918246;29;20590;-77
2022/10/13 04:00:34;;;;;;;13.33;7.77;;;8.50;99.90;;;;;;4925490;29;20198;-76
2022/10/13 04:03:00;;;;;;;9.73;6.57;;;8.50;99.90;;;;;;4922774;29;20355;-76
2022/10/13 04:05:26;;;;;;;11.27;7.20;;;8.50;99.90;;;;;;4940203;29;20290;-76
2022/10/13 04:07:51;;;;;;;16.17;6.63;;;8.60;99.90;;;;;;4925754;29;20226;-76
2022/10/13 04:10:17;;;;;;;12.63;6.67;;;8.60;99.90;;;;;;4941375;29;20246;-77
2022/10/13 04:12:43;;;;;;;11.50;7.17;;;8.60;99.90;;;;;;4927763;29;20218;-75
2022/10/13 04:15:09;;;;;;;9.20;6.50;;;8.60;99.90;;;;;;4943695;29;20190;-76
2022/10/13 04:17:35;;;;;;;12.17;6.27;;;8.70;99.90;;;;;;4937922;29;20225;-77
2022/10/13 04:20:00;;;;;;;9.53;6.43;;;8.70;99.90;;;;;;4938759;28;20202;-75
2022/10/13 04:22:26;;;;;;;10.80;7.03;;;8.70;99.90;;;;;;4932087;29;20585;-75
2022/10/13 04:24:51;;;;;;;8.47;6.40;;;8.70;99.90;;;;;;4913314;29;20192;-76
2022/10/13 04:27:18;;;;;;;8.80;5.63;;;8.70;99.90;;;;;;4942122;28;20726;-75
2022/10/13 04:29:47;;;;;;;14.50;6.43;;;8.70;99.90;;;;;;4915748;29;20222;-76
2022/10/13 04:32:13;;;;;;;16.87;7.03;;;8.70;99.90;;;;;;4931935;29;20199;-77
2022/10/13 04:34:38;;;;;;;9.83;6.33;;;8.70;99.90;;;;;;4915576;29;20309;-77
2022/10/13 04:37:04;;;;;;;9.60;7.50;;;8.70;99.90;;;;;;4927202;29;20835;-79
2022/10/13 04:39:29;;;;;;;15.17;7.30;;;8.70;99.90;;;;;;4917658;29;20186;-74
2022/10/13 04:41:55;;;;;;;11.33;7.47;;;8.70;99.90;;;;;;4928549;29;20663;-76
2022/10/13 04:44:20;;;;;;;11.67;7.30;;;8.80;99.90;;;;;;4916938;29;20220;-74
2022/10/13 04:46:46;;;;;;;11.47;7.00;;;8.80;99.90;;;;;;4928072;29;20214;-75
2022/10/13 04:49:12;;;;;;;9.83;6.80;;;8.80;99.90;;;;;;4935403;29;20270;-74
2022/10/13 04:51:37;;;;;;;12.13;6.77;;;8.80;99.90;;;;;;4939535;29;20246;-75
2022/10/13 04:54:04;;;;;;;11.03;7.50;;;8.80;99.90;;;;;;4919078;29;20311;-75
2022/10/13 04:56:30;;;;;;;9.60;7.20;;;8.80;99.90;;;;;;4937911;29;20579;-75
2022/10/13 04:58:56;;;;;;;12.57;7.37;;;8.80;99.90;;;;;;4915342;29;20270;-75
2022/10/13 05:01:23;;;;;;;13.90;8.03;;;8.90;99.90;;;;;;4931979;29;20211;-74
2022/10/13 05:03:57;;;;;;;13.83;7.43;;;8.80;99.90;;;;;;4911797;29;20232;-75
2022/10/13 05:06:26;;;;;;;9.43;6.20;;;8.80;99.90;;;;;;4926460;28;20213;-72
2022/10/13 05:08:52;;;;;;;12.13;7.40;;;8.90;99.90;;;;;;4922637;29;20220;-74
2022/10/13 05:11:19;;;;;;;13.17;7.80;;;8.90;99.90;;;;;;4935786;29;20187;-74
2022/10/13 05:13:45;;;;;;;18.80;8.20;;;8.90;99.90;;;;;;4915730;29;20208;-75
2022/10/13 05:16:12;;;;;;;9.90;7.50;;;8.80;99.90;;;;;;4934288;29;20200;-72
2022/10/13 05:18:38;;;;;;;12.80;7.73;;;8.90;99.90;;;;;;4914500;29;20235;-75
2022/10/13 05:21:08;;;;;;;10.07;8.33;;;8.90;99.90;;;;;;4922267;29;20204;-77
2022/10/13 05:23:35;;;;;;;9.80;7.93;;;8.90;99.90;;;;;;4919471;29;20225;-78
2022/10/13 05:26:03;;;;;;;10.00;8.27;;;8.90;99.90;;;;;;4939730;29;20293;-75
2022/10/13 05:28:28;;;;;;;12.60;8.60;;;9.00;99.90;;;;;;4919692;29;20212;-75
2022/10/13 05:30:54;;;;;;;12.73;8.67;;;8.90;99.90;;;;;;4945068;29;20206;-74
2022/10/13 05:33:19;;;;;;;11.47;8.60;;;8.90;99.90;;;;;;4914715;28;20255;-75
2022/10/13 05:35:45;;;;;;;10.93;7.50;;;9.00;99.90;;;;;;4928499;28;20613;-75
2022/10/13 05:38:10;;;;;;;12.53;8.60;;;9.00;99.90;;;;;;4923339;29;20204;-76
2022/10/13 05:40:35;;;;;;;17.97;8.77;;;9.00;99.90;;;;;;4937477;28;20234;-76
2022/10/13 05:43:02;;;;;;;16.43;8.37;;;9.00;99.90;;;;;;4928556;28;20255;-74
2022/10/13 05:45:30;;;;;;;11.97;8.20;;;9.00;99.90;;;;;;4912470;29;20245;-77
2022/10/13 05:47:56;;;;;;;10.90;8.37;;;9.00;99.90;;;;;;4931980;28;20242;-75
2022/10/13 05:50:21;;;;;;;15.03;9.80;;;9.10;99.90;;;;;;4948545;29;20269;-74
2022/10/13 05:52:47;;;;;;;14.50;8.27;;;9.10;99.90;;;;;;4921639;28;20451;-74
2022/10/13 05:55:15;;;;;;;13.43;8.83;;;9.10;99.90;;;;;;4912598;29;20187;-74
2022/10/13 05:57:46;;;;;;;11.40;8.83;;;9.10;99.90;;;;;;4936245;28;20214;-75
2022/10/13 06:00:17;;;;;;;12.37;8.50;;;9.10;99.90;;;;;;4928178;29;20203;-75
2022/10/13 06:02:53;;;;;;;11.20;8.87;;;9.10;99.90;;;;;;4946418;29;20218;-75
2022/10/13 06:05:21;;;;;;;10.73;7.60;;;9.00;99.90;;;;;;4923050;29;20199;-74
2022/10/13 06:07:47;;;;;;;9.83;8.83;;;9.00;99.90;;;;;;4946481;29;20211;-75
2022/10/13 06:10:13;;;;;;;13.43;9.30;;;9.00;99.90;;;;;;4918701;29;20219;-75
2022/10/13 06:12:39;;;;;;;14.67;10.03;;;9.00;99.90;;;;;;4926541;29;20674;-74
2022/10/13 06:15:05;;;;;;;11.77;8.30;;;9.00;99.90;;;;;;4924927;29;20247;-77
2022/10/13 06:17:30;;;;;;;11.67;9.90;;;9.00;99.90;;;;;;4944041;29;20181;-77
2022/10/13 06:19:56;;;;;;;14.57;9.53;;;9.00;99.90;;;;;;4952499;29;20551;-76
2022/10/13 06:22:21;;;;;;;15.23;9.57;;;8.90;99.90;;;;;;4946614;29;20191;-74
2022/10/13 06:24:47;;;;;;;13.10;10.10;;;8.90;99.90;;;;;;4936970;29;20284;-75
2022/10/13 06:27:13;;;;;;;15.77;10.73;;;8.90;99.90;;;;;;4953625;29;20194;-75
2022/10/13 06:29:38;;;;;;;13.03;9.50;;;8.90;99.90;;;;;;4920607;29;20217;-75
2022/10/13 06:32:04;;;;;;;12.07;9.17;;;8.90;99.90;;;;;;4952259;28;20250;-76
2022/10/13 06:34:30;;;;;;;17.10;10.97;;;8.90;99.90;;;;;;4923903;29;20223;-75
2022/10/13 06:36:55;;;;;;;13.00;11.70;;;8.90;99.90;;;;;;4949957;29;20196;-74
2022/10/13 06:39:21;;;;;;;13.33;9.17;;;9.00;99.90;;;;;;4939306;29;20201;-79
2022/10/13 06:41:47;;;;;;;14.27;9.50;;;9.00;99.90;;;;;;4969053;28;20208;-79
2022/10/13 06:44:13;;;;;;;17.83;10.80;;;9.00;99.90;;;;;;4951950;29;20200;-77
2022/10/13 06:46:38;;;;;;;17.10;9.90;;;9.10;99.90;;;;;;4954026;29;20474;-80
2022/10/13 06:49:04;;;;;;;13.60;10.63;;;9.10;99.90;;;;;;4941130;28;20530;-78
2022/10/13 06:51:29;;;;;;;17.90;9.83;;;9.10;99.90;;;;;;4954857;29;20248;-77
2022/10/13 06:53:55;;;;;;;16.13;10.13;;;9.20;99.90;;;;;;4943297;28;20663;-78
2022/10/13 06:56:22;;;;;;;11.77;10.33;;;9.20;99.90;;;;;;4934201;29;20192;-78
2022/10/13 06:58:47;;;;;;;16.40;9.17;;;9.30;99.90;;;;;;4943651;29;20243;-75
2022/10/13 07:01:13;;;;;;;15.90;11.30;;;9.30;99.90;;;;;;4947222;29;20232;-75
2022/10/13 07:03:39;;;;;;;16.13;9.60;;;9.30;99.90;;;;;;4931341;29;20231;-77
2022/10/13 07:06:05;;;;;;;13.20;9.77;;;9.40;99.90;;;;;;4961889;29;20194;-79
2022/10/13 07:08:32;;;;;;;14.93;10.63;;;9.50;99.90;;;;;;4929448;29;20296;-74
2022/10/13 07:10:58;;;;;;;19.30;10.40;;;9.60;99.90;;;;;;4919114;29;20196;-74
2022/10/13 07:13:23;;;;;;;14.00;9.77;;;9.60;99.90;;;;;;4919534;29;20282;-75
2022/10/13 07:15:49;;;;;;;16.23;11.00;;;9.70;99.90;;;;;;4921588;29;20206;-73
2022/10/13 07:18:14;;;;;;;15.63;10.90;;;9.70;99.90;;;;;;4931991;29;20201;-73
2022/10/13 07:20:40;;;;;;;13.87;10.13;;;9.70;99.90;;;;;;4933874;29;20245;-77
2022/10/13 07:23:05;;;;;;;12.03;10.43;;;9.90;99.90;;;;;;4922862;29;20208;-76
2022/10/13 07:25:31;;;;;;;18.30;10.73;;;9.90;99.90;;;;;;4919320;29;20347;-73
2022/10/13 07:27:59;;;;;;;18.50;9.83;;;10.00;99.90;;;;;;4933963;29;20207;-73
2022/10/13 07:30:25;;;;;;;17.83;10.43;;;10.10;99.90;;;;;;4920425;29;20200;-72
2022/10/13 07:32:51;;;;;;;12.33;10.20;;;10.20;99.90;;;;;;4923730;29;20554;-73
2022/10/13 07:35:17;;;;;;;17.60;11.23;;;10.30;99.90;;;;;;4921578;29;20191;-72
2022/10/13 07:37:42;;;;;;;17.27;10.30;;;10.40;99.90;;;;;;4926057;29;20733;-72
2022/10/13 07:40:08;;;;;;;13.87;10.63;;;10.40;99.90;;;;;;4920263;29;20193;-72
2022/10/13 07:42:34;;;;;;;12.90;10.70;;;10.50;99.90;;;;;;4925512;29;20429;-73
2022/10/13 07:44:59;;;;;;;14.60;11.03;;;10.60;99.90;;;;;;4927541;29;20809;-72
2022/10/13 07:47:25;;;;;;;12.67;10.87;;;10.70;99.90;;;;;;4938799;29;20520;-72
2022/10/13 07:49:50;;;;;;;19.43;10.57;;;10.90;99.90;;;;;;4919019;29;20219;-73
2022/10/13 07:52:16;;;;;;;15.70;10.43;;;11.10;99.90;;;;;;4935250;29;20223;-72
2022/10/13 07:54:41;;;;;;;16.37;10.50;;;11.30;99.90;;;;;;4915327;29;20228;-72
2022/10/13 07:57:07;;;;;;;18.33;11.03;;;11.50;99.90;;;;;;4939188;29;20247;-73
2022/10/13 07:59:34;;;;;;;14.30;12.17;;;11.60;99.90;;;;;;4912282;29;20704;-73
2022/10/13 08:02:00;;;;;;;11.90;10.03;;;11.80;99.90;;;;;;4940177;29;20243;-71
2022/10/13 08:04:30;;;;;;;13.73;10.33;;;12.00;99.90;;;;;;4914618;29;20207;-74
2022/10/13 08:06:55;;;;;;;12.87;10.33;;;12.20;99.90;;;;;;4936296;28;20206;-73
2022/10/13 08:09:21;;;;;;;19.23;10.87;;;12.30;99.90;;;;;;4918463;29;20228;-72
2022/10/13 08:11:46;;;;;;;13.47;10.93;;;12.50;99.90;;;;;;4941313;29;20741;-74
2022/10/13 08:14:12;;;;;;;14.00;11.57;;;12.60;99.90;;;;;;4915366;29;20217;-74
2022/10/13 08:16:39;;;;;;;14.23;11.77;;;12.50;99.90;;;;;;4937652;29;20195;-74
2022/10/13 08:19:04;;;;;;;15.70;9.77;;;12.50;99.90;;;;;;4924906;29;20234;-74
2022/10/13 08:21:30;;;;;;;12.47;10.40;;;12.50;99.90;;;;;;4932447;28;20233;-74
2022/10/13 08:23:55;;;;;;;12.77;10.03;;;12.50;99.90;;;;;;4921629;29;20675;-73
2022/10/13 08:26:24;;;;;;;14.10;10.07;;;12.50;99.90;;;;;;4922879;29;20227;-74
2022/10/13 08:28:50;;;;;;;12.90;10.47;;;12.60;99.90;;;;;;4930880;29;20309;-74
2022/10/13 08:31:15;;;;;;;16.10;10.93;;;12.70;99.90;;;;;;4929042;29;20689;-73
2022/10/13 08:33:41;;;;;;;16.07;10.13;;;12.80;99.90;;;;;;4928415;29;20208;-74
2022/10/13 08:36:07;;;;;;;15.90;11.37;;;12.90;99.90;;;;;;4912526;29;20344;-74
2022/10/13 08:38:33;;;;;;;11.47;10.37;;;12.90;99.90;;;;;;4928367;29;20293;-76
2022/10/13 08:40:59;;;;;;;12.57;11.27;;;13.00;99.90;;;;;;4924912;29;20254;-73
2022/10/13 08:43:25;;;;;;;19.20;11.43;;;13.10;99.90;;;;;;4929780;29;20215;-84
2022/10/13 08:45:58;;;;;;;16.93;11.07;;;13.10;99.90;;;;;;4911009;29;20215;-83
2022/10/13 08:48:28;;;;;;;13.57;10.57;;;13.10;99.90;;;;;;4915133;29;20206;-84
2022/10/13 08:50:58;;;;;;;17.00;10.47;;;13.20;99.90;;;;;;4921943;29;20199;-79
2022/10/13 08:53:45;;;;;;;15.17;11.57;;;13.20;99.90;;;;;;4919917;29;20236;-88
2022/10/13 08:56:30;;;;;;;15.73;10.87;;;13.30;99.90;;;;;;4922117;29;20650;-81
2022/10/13 08:58:56;;;;;;;16.37;10.70;;;13.40;99.90;;;;;;4919509;29;20206;-89
2022/10/13 09:01:34;;;;;;;12.17;10.63;;;13.50;99.90;;;;;;4928046;29;20203;-92
2022/10/13 09:04:25;;;;;;;17.10;11.17;;;13.70;99.90;;;;;;4926219;29;20637;-84
2022/10/13 09:07:08;;;;;;;16.43;11.77;;;13.90;99.90;;;;;;4923861;29;20192;-84
2022/10/13 09:09:35;;;;;;;15.33;10.83;;;13.90;99.90;;;;;;4919546;29;20442;-82
2022/10/13 09:12:01;;;;;;;14.00;10.53;;;13.90;99.90;;;;;;4934162;29;20541;-85
2022/10/13 09:14:31;;;;;;;16.80;10.60;;;13.90;99.90;;;;;;4936875;29;20231;-83
2022/10/13 09:17:22;;;;;;;13.80;11.00;;;14.00;99.90;;;;;;4939162;28;20195;-84
2022/10/13 09:20:05;;;;;;;17.70;11.63;;;14.00;99.90;;;;;;4919988;29;20237;-81
2022/10/13 09:22:36;;;;;;;14.03;10.60;;;14.00;99.90;;;;;;4934340;29;20194;-80
2022/10/13 09:25:05;;;;;;;16.90;11.83;;;14.10;99.90;;;;;;4921396;29;20603;-81
2022/10/13 09:27:45;;;;;;;15.10;11.93;;;14.20;99.90;;;;;;4942388;29;20307;-78
2022/10/13 09:30:28;;;;;;;14.83;10.47;;;14.20;99.90;;;;;;4918435;29;20203;-88
2022/10/13 09:33:10;;;;;;;13.40;10.93;;;14.40;99.90;;;;;;4944750;29;20187;-89
2022/10/13 09:35:44;;;;;;;19.30;11.13;;;14.40;99.90;;;;;;4931916;29;20619;-80
2022/10/13 09:38:14;;;;;;;16.90;11.90;;;14.50;99.90;;;;;;4939224;29;20275;-90
2022/10/13 09:40:40;;;;;;;17.67;11.17;;;14.50;99.90;;;;;;4928656;29;20227;-88
2022/10/13 09:43:26;;;;;;;16.13;11.70;;;14.50;99.90;;;;;;4924643;29;20743;-81
2022/10/13 09:45:52;;;;;;;15.50;11.23;;;14.60;99.90;;;;;;4919939;29;20179;-75
2022/10/13 09:48:24;;;;;;;16.07;11.07;;;14.80;99.90;;;;;;4920386;29;20202;-71
2022/10/13 09:50:53;;;;;;;14.60;11.77;;;15.00;99.90;;;;;;4920146;29;20179;-71
2022/10/13 09:53:31;;;;;;;16.73;12.23;;;15.00;99.90;;;;;;4922305;29;20570;-75
2022/10/13 09:56:22;;;;;;;13.63;11.70;;;15.00;99.90;;;;;;4929866;29;20206;-77
2022/10/13 09:59:09;;;;;;;17.00;11.43;;;15.10;99.90;;;;;;4925362;29;20262;-72
2022/10/13 10:01:39;;;;;;;18.60;10.83;;;15.30;99.90;;;;;;4944937;29;20199;-72
2022/10/13 10:04:09;;;;;;;12.33;11.03;;;15.50;99.90;;;;;;4927097;29;20217;-72
2022/10/13 10:06:36;;;;;;;14.13;10.97;;;15.60;99.90;;;;;;4923332;29;20203;-72
2022/10/13 10:09:32;;;;;;;13.33;10.03;;;15.40;99.90;;;;;;4935287;29;20223;-72
2022/10/13 10:11:59;;;;;;;15.20;12.17;;;15.40;99.90;;;;;;4909772;29;20192;-72
2022/10/13 10:14:33;;;;;;;15.90;12.10;;;15.50;99.90;;;;;;4921648;29;20211;-69
2022/10/13 10:17:41;;;;;;;13.37;10.63;;;15.60;99.90;;;;;;4941598;29;20195;-71
2022/10/13 10:20:07;;;;;;;12.43;10.40;;;15.60;99.90;;;;;;4910359;29;20223;-70
2022/10/13 10:22:43;;;;;;;13.47;12.13;;;15.70;99.90;;;;;;4914093;29;20204;-70
2022/10/13 10:25:32;;;;;;;13.30;10.73;;;15.80;99.90;;;;;;4911906;29;20547;-69
2022/10/13 10:28:06;;;;;;;13.27;11.77;;;15.90;99.90;;;;;;4914839;29;20219;-70
2022/10/13 10:30:36;;;;;;;20.50;11.93;;;16.00;99.90;;;;;;4917321;29;20322;-69
2022/10/13 10:33:14;;;;;;;19.13;11.50;;;16.10;99.90;;;;;;4925368;29;20721;-71
2022/10/13 10:35:51;;;;;;;15.60;12.60;;;16.10;99.90;;;;;;4929109;29;20186;-71
2022/10/13 10:38:49;;;;;;;17.60;11.47;;;16.20;99.90;;;;;;4919583;29;20191;-71
2022/10/13 10:41:53;;;;;;;16.33;11.37;;;16.40;99.90;;;;;;4927418;29;20178;-72
2022/10/13 10:44:26;;;;;;;14.30;10.57;;;16.70;99.90;;;;;;4917547;29;20202;-71
2022/10/13 10:46:58;;;;;;;18.03;12.13;;;16.90;99.90;;;;;;4923984;29;20201;-72
2022/10/13 10:49:32;;;;;;;15.40;11.23;;;17.00;99.90;;;;;;4909539;29;20227;-81
2022/10/13 10:52:06;;;;;;;16.37;12.20;;;17.00;99.90;;;;;;4946025;29;20193;-69
2022/10/13 10:54:49;;;;;;;15.43;11.23;;;17.00;99.90;;;;;;4922319;28;20679;-69
2022/10/13 10:57:32;;;;;;;13.30;11.23;;;17.00;99.90;;;;;;4909052;29;20543;-68
2022/10/13 11:00:04;;;;;;;18.23;12.17;;;17.00;99.90;;;;;;4916232;29;20575;-70
2022/10/13 11:03:10;;;;;;;12.80;9.77;;;17.00;99.90;;;;;;4915561;29;20243;-73
2022/10/13 11:06:05;;;;;;;15.13;9.97;;;17.10;99.90;;;;;;4918437;29;20277;-71
2022/10/13 11:08:42;;;;;;;18.33;11.43;;;17.10;99.90;;;;;;4914388;29;20210;-70
2022/10/13 11:11:22;;;;;;;13.07;10.43;;;17.10;99.90;;;;;;4916625;29;20190;-69
2022/10/13 11:13:54;;;;;;;15.23;11.43;;;17.10;99.90;;;;;;4919907;29;20656;-69
2022/10/13 11:16:57;;;;;;;10.80;9.70;;;17.50;99.90;;;;;;4917668;29;20178;-68
2022/10/13 11:19:33;;;;;;;11.03;9.90;;;17.90;99.90;;;;;;4912918;28;20649;-68
2022/10/13 11:21:58;;;;;;;13.33;9.77;;;18.00;99.90;;;;;;4918497;28;20243;-69
2022/10/13 11:24:33;;;;;;;15.40;9.83;;;17.90;99.90;;;;;;4915189;29;20207;-71
2022/10/13 11:27:24;;;;;;;14.30;10.27;;;17.90;99.90;;;;;;4918455;29;20286;-71
2022/10/13 11:29:53;;;;;;;12.80;9.77;;;18.00;99.90;;;;;;4913254;29;20303;-70
2022/10/13 11:35:01;;;;;;;10.53;9.53;;;17.80;99.90;;;;;;4913702;29;20211;-70
2022/10/13 11:37:43;;;;;;;10.33;8.53;;;17.60;99.90;;;;;;4920738;29;20214;-70
2022/10/13 11:40:33;;;;;;;11.93;8.47;;;17.40;99.90;;;;;;4913794;29;20638;-70
2022/10/13 11:43:14;;;;;;;11.80;8.30;;;17.40;99.90;;;;;;4919536;29;20194;-70
2022/10/13 11:45:44;;;;;;;15.13;9.17;;;17.30;99.90;;;;;;4918372;29;20188;-70
2022/10/13 11:48:21;;;;;;;16.70;9.30;;;17.20;99.90;;;;;;4917326;28;20187;-70
2022/10/13 11:51:27;;;;;;;11.40;8.23;;;17.20;99.90;;;;;;4917515;29;20187;-70
2022/10/13 11:54:39;;;;;;;11.33;8.00;;;17.30;99.90;;;;;;4918656;29;20234;-71
2022/10/13 11:57:19;;;;;;;9.77;7.47;;;17.50;99.90;;;;;;4903772;29;20198;-70
2022/10/13 11:59:47;;;;;;;7.07;6.40;;;17.70;99.90;;;;;;4932976;28;20685;-70
2022/10/13 12:02:17;;;;;;;11.17;6.03;;;17.90;99.90;;;;;;4930036;29;20211;-70
2022/10/13 12:04:59;;;;;;;7.77;6.27;;;18.00;99.90;;;;;;4914370;29;20219;-70
2022/10/13 12:07:32;;;;;;;11.27;6.30;;;18.20;99.90;;;;;;4913514;29;20199;-70
2022/10/13 12:09:57;;;;;;;11.67;6.13;;;18.30;99.90;;;;;;4908069;29;20224;-71
2022/10/13 12:12:24;;;;;;;8.37;6.00;;;18.30;99.90;;;;;;4934894;29;20227;-71
2022/10/13 12:14:55;;;;;;;9.90;5.97;;;18.30;99.90;;;;;;4919239;29;20223;-72
2022/10/13 12:17:25;;;;;;;11.70;6.40;;;18.40;99.90;;;;;;4908436;29;20291;-69
2022/10/13 12:19:56;;;;;;;8.23;6.43;;;18.20;99.90;;;;;;4931939;29;20213;-70
2022/10/13 12:22:22;;;;;;;8.97;5.33;;;18.20;99.90;;;;;;4919654;29;20223;-71
2022/10/13 12:25:05;;;;;;;10.97;6.07;;;18.20;99.90;;;;;;4911551;29;20763;-71
2022/10/13 12:27:46;;;;;;;9.20;6.10;;;18.20;99.90;;;;;;4927319;29;20975;-71
2022/10/13 12:30:25;;;;;;;9.47;6.67;;;18.30;99.90;;;;;;4907160;29;20286;-70
2022/10/13 12:32:53;;;;;;;8.67;6.27;;;18.50;99.90;;;;;;4941367;29;20201;-70
2022/10/13 12:35:21;;;;;;;9.03;5.73;;;18.50;99.90;;;;;;4918289;29;20271;-71
2022/10/13 12:37:48;;;;;;;11.07;6.07;;;18.40;99.90;;;;;;4936949;28;20203;-71
2022/10/13 12:40:16;;;;;;;7.93;6.03;;;18.30;99.90;;;;;;4916802;29;20569;-71
2022/10/13 12:42:42;;;;;;;9.03;6.40;;;18.30;99.90;;;;;;4941526;29;20255;-71
2022/10/13 12:45:17;;;;;;;9.27;5.80;;;18.30;99.90;;;;;;4916397;29;20265;-71
2022/10/13 12:47:43;;;;;;;8.60;5.80;;;18.10;99.90;;;;;;4941869;29;20229;-71
2022/10/13 12:50:26;;;;;;;10.07;6.43;;;17.90;99.90;;;;;;4916135;29;20698;-71
2022/10/13 12:53:04;;;;;;;9.20;5.60;;;17.90;99.90;;;;;;4941861;28;20230;-70
2022/10/13 12:55:30;;;;;;;9.17;6.90;;;17.80;99.90;;;;;;4908607;29;21055;-71
2022/10/13 12:57:56;;;;;;;6.70;5.87;;;17.80;99.90;;;;;;4925164;29;20196;-71
2022/10/13 13:00:27;;;;;;;10.40;6.93;;;17.70;99.90;;;;;;4922657;29;20208;-71